createdAt,value
2019-02-24T00:01:20.034Z,167.45
2019-02-24T00:03:48.388Z,166.18
2019-02-24T00:06:16.738Z,153.80
2019-02-24T00:08:45.202Z,164.57
2019-02-24T00:11:13.531Z,174.32
2019-02-24T00:13:41.811Z,168.20
2019-02-24T00:16:10.128Z,154.95
2019-02-24T00:18:38.411Z,143.20
2019-02-24T00:21:06.751Z,156.00
2019-02-24T00:23:35.128Z,156.07
2019-02-24T00:26:04.684Z,149.32
2019-02-24T00:31:00.858Z,148.20
2019-02-24T00:33:29.175Z,141.12
2019-02-24T00:35:59.095Z,155.65
2019-02-24T00:38:27.495Z,134.32
2019-02-24T00:40:55.849Z,138.55
2019-02-24T00:43:24.173Z,118.80
2019-02-24T00:45:52.622Z,114.40
2019-02-24T00:48:20.907Z,121.17
2019-02-24T00:50:49.283Z,107.67
2019-02-24T00:53:17.670Z,111.37
2019-02-24T00:55:45.960Z,102.25
2019-02-24T00:58:16.392Z,115.42
2019-02-24T01:00:46.001Z,108.92
2019-02-24T01:03:14.454Z,97.92
2019-02-24T01:05:42.772Z,91.87
2019-02-24T01:08:11.147Z,103.27
2019-02-24T01:10:39.508Z,91.63
2019-02-24T01:13:07.869Z,99.47
2019-02-24T01:15:39.211Z,100.85
2019-02-24T01:18:07.510Z,91.97
2019-02-24T01:20:35.891Z,95.17
2019-02-24T01:23:04.302Z,90.55
2019-02-24T01:25:35.810Z,95.12
2019-02-24T01:28:04.265Z,101.07
2019-02-24T01:30:32.575Z,95.17
2019-02-24T01:33:00.883Z,101.72
2019-02-24T01:35:29.217Z,97.45
2019-02-24T01:37:57.670Z,86.63
2019-02-24T01:40:26.033Z,88.27
2019-02-24T01:42:54.396Z,73.57
2019-02-24T01:45:22.792Z,80.05
2019-02-24T01:47:51.170Z,80.15
2019-02-24T01:50:19.580Z,83.00
2019-02-24T01:52:47.951Z,79.45
2019-02-24T01:55:16.320Z,77.92
2019-02-24T01:57:44.673Z,75.03
2019-02-24T02:00:13.073Z,89.17
2019-02-24T02:02:41.407Z,83.75
2019-02-24T02:05:09.756Z,92.33
2019-02-24T02:07:38.072Z,73.90
2019-02-24T02:10:06.598Z,81.22
2019-02-24T02:12:34.944Z,80.55
2019-02-24T02:15:03.320Z,75.25
2019-02-24T02:17:31.611Z,79.27
2019-02-24T02:19:59.882Z,87.08
2019-02-24T02:22:28.216Z,80.05
2019-02-24T02:24:56.565Z,91.75
2019-02-24T02:27:25.158Z,91.82
2019-02-24T02:29:53.534Z,96.70
2019-02-24T02:32:21.818Z,109.85
2019-02-24T02:34:50.109Z,114.60
2019-02-24T02:37:18.453Z,116.05
2019-02-24T02:39:46.820Z,114.32
2019-02-24T02:42:15.292Z,100.42
2019-02-24T02:44:43.676Z,110.65
2019-02-24T02:47:12.004Z,99.30
2019-02-24T02:49:40.368Z,96.35
2019-02-24T02:52:08.747Z,99.95
2019-02-24T02:54:37.082Z,101.67
2019-02-24T02:57:05.430Z,96.97
2019-02-24T02:59:33.739Z,103.78
2019-02-24T03:02:02.016Z,96.15
2019-02-24T03:04:30.302Z,103.12
2019-02-24T03:07:00.273Z,110.20
2019-02-24T03:09:28.629Z,104.75
2019-02-24T03:11:56.911Z,101.75
2019-02-24T03:14:25.232Z,102.35
2019-02-24T03:16:53.671Z,109.32
2019-02-24T03:19:21.959Z,120.17
2019-02-24T03:21:50.273Z,121.13
2019-02-24T03:24:18.624Z,116.30
2019-02-24T03:26:46.988Z,124.00
2019-02-24T03:29:15.528Z,111.37
2019-02-24T03:31:43.821Z,125.72
2019-02-24T03:34:12.176Z,128.78
2019-02-24T03:36:40.491Z,118.05
2019-02-24T03:39:08.771Z,120.00
2019-02-24T03:41:37.047Z,122.55
2019-02-24T03:44:05.364Z,129.12
2019-02-24T03:46:33.755Z,122.02
2019-02-24T03:49:02.036Z,132.30
2019-02-24T03:51:30.428Z,143.65
2019-02-24T03:53:58.878Z,154.05
2019-02-24T03:56:27.258Z,138.55
2019-02-24T03:58:55.667Z,133.65
2019-02-24T04:01:24.031Z,146.43
2019-02-24T04:03:52.392Z,140.05
2019-02-24T04:06:20.787Z,136.92
2019-02-24T04:08:49.098Z,141.30
2019-02-24T04:11:17.456Z,144.77
2019-02-24T04:13:45.772Z,150.27
2019-02-24T04:16:14.047Z,135.52
2019-02-24T04:18:42.331Z,147.98
2019-02-24T04:21:10.647Z,155.60
2019-02-24T04:23:38.940Z,143.75
2019-02-24T04:26:07.236Z,147.20
2019-02-24T04:28:35.624Z,135.32
2019-02-24T04:31:04.162Z,137.62
2019-02-24T04:33:32.448Z,138.32
2019-02-24T04:36:00.762Z,151.00
2019-02-24T04:38:29.056Z,147.43
2019-02-24T04:40:57.357Z,144.32
2019-02-24T04:43:25.823Z,147.72
2019-02-24T04:45:54.108Z,155.20
2019-02-24T04:48:22.389Z,148.13
2019-02-24T04:50:50.717Z,148.87
2019-02-24T04:53:19.010Z,153.10
2019-02-24T04:55:47.304Z,160.55
2019-02-24T04:58:15.631Z,153.07
2019-02-24T05:00:43.979Z,132.93
2019-02-24T05:03:12.272Z,124.82
2019-02-24T05:05:40.654Z,140.92
2019-02-24T05:08:08.964Z,110.25
2019-02-24T05:10:37.341Z,117.62
2019-02-24T05:13:05.727Z,118.17
2019-02-24T05:15:34.063Z,121.28
2019-02-24T05:18:02.431Z,126.10
2019-02-24T05:20:30.814Z,114.97
2019-02-24T05:22:59.207Z,123.82
2019-02-24T05:25:27.569Z,124.05
2019-02-24T05:27:56.004Z,122.80
2019-02-24T05:30:24.296Z,132.93
2019-02-24T05:32:52.804Z,121.57
2019-02-24T05:35:21.247Z,123.47
2019-02-24T05:37:49.535Z,118.20
2019-02-24T05:40:17.887Z,122.92
2019-02-24T05:42:46.200Z,124.77
2019-02-24T05:45:14.642Z,123.30
2019-02-24T05:47:42.997Z,128.38
2019-02-24T05:50:11.389Z,132.65
2019-02-24T05:52:39.677Z,130.18
2019-02-24T05:55:08.130Z,118.97
2019-02-24T05:57:36.456Z,127.17
2019-02-24T06:00:05.897Z,119.82
2019-02-24T06:02:34.238Z,130.85
2019-02-24T06:05:02.652Z,128.15
2019-02-24T06:07:33.119Z,123.40
2019-02-24T06:10:01.045Z,123.35
2019-02-24T06:12:29.409Z,134.55
2019-02-24T06:14:57.767Z,135.70
2019-02-24T06:17:26.064Z,149.10
2019-02-24T06:19:54.454Z,165.28
2019-02-24T06:22:22.730Z,178.57
2019-02-24T06:24:51.011Z,152.02
2019-02-24T06:27:19.358Z,157.45
2019-02-24T06:29:47.731Z,159.32
2019-02-24T06:32:16.017Z,166.55
2019-02-24T06:34:44.405Z,164.13
2019-02-24T06:37:12.751Z,160.80
2019-02-24T06:39:41.039Z,168.02
2019-02-24T06:42:09.427Z,168.37
2019-02-24T06:44:37.711Z,170.87
2019-02-24T06:47:05.986Z,173.65
2019-02-24T06:49:34.309Z,191.90
2019-02-24T06:52:02.665Z,176.27
2019-02-24T06:54:31.027Z,172.55
2019-02-24T06:56:59.414Z,160.90
2019-02-24T06:59:27.772Z,172.13
2019-02-24T07:01:56.053Z,158.18
2019-02-24T07:04:24.451Z,140.03
2019-02-24T07:06:52.809Z,140.95
2019-02-24T07:09:21.169Z,147.17
2019-02-24T07:11:49.554Z,140.77
2019-02-24T07:14:17.844Z,126.40
2019-02-24T07:16:46.139Z,108.85
2019-02-24T07:19:14.458Z,116.97
2019-02-24T07:21:42.822Z,118.33
2019-02-24T07:24:11.200Z,116.70
2019-02-24T07:26:39.591Z,122.33
2019-02-24T07:29:07.961Z,108.37
2019-02-24T07:31:36.343Z,123.05
2019-02-24T07:34:04.732Z,112.52
2019-02-24T07:36:34.127Z,115.03
2019-02-24T07:39:03.480Z,121.92
2019-02-24T07:41:31.802Z,110.63
2019-02-24T07:44:00.110Z,116.77
2019-02-24T07:46:28.471Z,115.17
2019-02-24T07:48:56.832Z,115.97
2019-02-24T07:51:25.223Z,113.85
2019-02-24T07:53:53.507Z,123.97
2019-02-24T07:56:21.821Z,125.47
2019-02-24T07:58:50.127Z,119.15
2019-02-24T08:01:18.434Z,115.40
2019-02-24T08:03:46.763Z,114.55
2019-02-24T08:06:15.119Z,117.00
2019-02-24T08:08:43.410Z,118.97
2019-02-24T08:11:11.812Z,106.35
2019-02-24T08:13:40.233Z,119.42
2019-02-24T08:16:08.612Z,116.88
2019-02-24T08:18:37.000Z,114.28
2019-02-24T08:21:05.509Z,113.95
2019-02-24T08:23:33.847Z,119.97
2019-02-24T08:26:02.235Z,118.28
2019-02-24T08:28:30.530Z,121.17
2019-02-24T08:30:58.889Z,131.25
2019-02-24T08:33:27.234Z,140.12
2019-02-24T08:35:55.603Z,142.82
2019-02-24T08:38:24.139Z,142.20
2019-02-24T08:40:52.518Z,146.07
2019-02-24T08:43:20.875Z,153.78
2019-02-24T08:45:49.153Z,150.32
2019-02-24T08:48:19.176Z,157.65
2019-02-24T08:50:47.548Z,154.47
2019-02-24T08:53:15.923Z,153.68
2019-02-24T08:55:44.265Z,160.20
2019-02-24T08:58:12.856Z,168.97
2019-02-24T09:00:50.497Z,157.47
2019-02-24T09:03:11.171Z,168.35
2019-02-24T09:05:39.530Z,159.70
2019-02-24T09:08:07.829Z,166.18
2019-02-24T09:10:36.212Z,159.80
2019-02-24T09:13:04.503Z,177.02
2019-02-24T09:15:32.785Z,185.25
2019-02-24T09:18:01.176Z,176.07
2019-02-24T09:20:29.534Z,186.43
2019-02-24T09:22:57.903Z,184.20
2019-02-24T09:25:26.237Z,178.53
2019-02-24T09:27:54.536Z,191.20
2019-02-24T09:30:22.975Z,189.10
2019-02-24T09:32:51.394Z,184.82
2019-02-24T09:35:19.687Z,189.55
2019-02-24T09:37:48.026Z,194.85
2019-02-24T09:40:16.758Z,179.20
2019-02-24T09:42:45.112Z,171.57
2019-02-24T09:45:13.474Z,154.18
2019-02-24T09:47:46.855Z,148.55
2019-02-24T09:50:11.907Z,152.82
2019-02-24T09:52:40.194Z,152.15
2019-02-24T09:55:09.237Z,171.47
2019-02-24T09:57:37.516Z,140.60
2019-02-24T10:00:09.128Z,133.37
2019-02-24T10:02:37.510Z,144.87
2019-02-24T10:05:06.739Z,147.47
2019-02-24T10:07:35.031Z,106.35
2019-02-24T10:10:03.791Z,136.90
2019-02-24T10:12:32.063Z,133.67
2019-02-24T10:15:00.363Z,125.18
2019-02-24T10:17:28.696Z,125.95
2019-02-24T10:19:57.066Z,130.03
2019-02-24T10:22:25.352Z,115.42
2019-02-24T10:24:53.732Z,109.80
2019-02-24T10:27:22.097Z,111.83
2019-02-24T10:29:50.455Z,102.32
2019-02-24T10:32:18.779Z,95.77
2019-02-24T10:34:47.065Z,94.87
2019-02-24T10:37:15.344Z,85.45
2019-02-24T10:39:43.659Z,93.87
2019-02-24T10:42:12.048Z,81.12
2019-02-24T10:44:40.413Z,83.92
2019-02-24T10:47:10.420Z,80.87
2019-02-24T10:49:38.695Z,89.83
2019-02-24T10:52:06.976Z,80.77
2019-02-24T10:54:35.379Z,80.50
2019-02-24T10:57:03.723Z,87.47
2019-02-24T10:59:32.014Z,73.15
2019-02-24T11:02:00.416Z,67.00
2019-02-24T11:04:28.757Z,62.30
2019-02-24T11:06:57.032Z,74.82
2019-02-24T11:09:25.421Z,77.55
2019-02-24T11:11:53.767Z,84.30
2019-02-24T11:14:22.033Z,74.27
2019-02-24T11:16:50.426Z,67.92
2019-02-24T11:19:18.793Z,65.30
2019-02-24T11:21:47.136Z,76.22
2019-02-24T11:24:15.670Z,77.78
2019-02-24T11:26:44.126Z,85.85
2019-02-24T11:29:12.467Z,84.77
2019-02-24T11:31:40.807Z,76.40
2019-02-24T11:34:18.167Z,83.87
2019-02-24T11:36:46.597Z,85.15
2019-02-24T11:39:14.871Z,85.42
2019-02-24T11:41:43.155Z,84.83
2019-02-24T11:44:12.049Z,89.60
2019-02-24T11:46:40.418Z,76.10
2019-02-24T11:49:08.874Z,72.22
2019-02-24T11:51:38.086Z,75.97
2019-02-24T11:54:06.371Z,71.82
2019-02-24T11:56:34.657Z,75.40
2019-02-24T11:59:03.059Z,72.62
2019-02-24T12:01:31.528Z,66.57
2019-02-24T12:03:59.953Z,70.62
2019-02-24T12:06:28.335Z,68.20
2019-02-24T12:09:04.873Z,66.25
2019-02-24T12:11:26.667Z,62.83
2019-02-24T12:13:55.118Z,62.60
2019-02-24T12:16:26.275Z,71.82
2019-02-24T12:18:54.599Z,67.72
2019-02-24T12:21:22.924Z,73.55
2019-02-24T12:23:52.526Z,65.08
2019-02-24T12:26:20.867Z,68.85
2019-02-24T12:28:49.372Z,68.37
2019-02-24T12:31:17.722Z,69.17
2019-02-24T12:33:46.041Z,69.35
2019-02-24T12:36:14.482Z,59.10
2019-02-24T12:38:42.889Z,68.75
2019-02-24T12:41:11.179Z,70.83
2019-02-24T12:43:39.560Z,74.47
2019-02-24T12:46:08.111Z,64.53
2019-02-24T12:48:36.483Z,61.88
2019-02-24T12:51:04.802Z,68.55
2019-02-24T12:53:33.103Z,73.00
2019-02-24T12:56:01.450Z,69.37
2019-02-24T12:58:29.935Z,51.65
2019-02-24T13:00:58.271Z,57.43
2019-02-24T13:03:26.593Z,57.75
2019-02-24T13:05:54.971Z,51.15
2019-02-24T13:08:23.320Z,35.13
2019-02-24T13:10:51.675Z,32.67
2019-02-24T13:13:20.060Z,36.45
2019-02-24T13:15:48.351Z,41.75
2019-02-24T13:18:16.703Z,43.85
2019-02-24T13:23:19.383Z,38.48
2019-02-24T13:25:47.659Z,32.88
2019-02-24T13:28:15.992Z,46.63
2019-02-24T13:30:44.296Z,47.23
2019-02-24T13:33:12.578Z,43.33
2019-02-24T13:35:40.934Z,42.03
2019-02-24T13:38:10.678Z,41.13
2019-02-24T13:43:06.691Z,40.03
2019-02-24T13:45:35.106Z,29.00
2019-02-24T13:48:03.595Z,23.83
2019-02-24T13:50:31.946Z,26.55
2019-02-24T13:53:00.247Z,26.70
2019-02-24T13:55:28.542Z,27.90
2019-02-24T13:57:56.868Z,30.97
2019-02-24T14:00:25.183Z,30.97
2019-02-24T14:02:53.473Z,30.90
2019-02-24T14:05:21.759Z,35.75
2019-02-24T14:07:50.083Z,40.15
2019-02-24T14:10:18.427Z,38.20
2019-02-24T14:12:46.792Z,38.65
2019-02-24T14:15:15.826Z,44.45
2019-02-24T14:17:44.199Z,46.95
2019-02-24T14:20:16.785Z,38.53
2019-02-24T14:22:45.091Z,45.20
2019-02-24T14:25:14.408Z,46.40
2019-02-24T14:27:42.755Z,49.70
2019-02-24T14:30:13.899Z,41.90
2019-02-24T14:32:44.007Z,47.98
2019-02-24T14:35:23.518Z,46.75
2019-02-24T14:40:19.603Z,49.65
2019-02-24T14:42:47.978Z,57.30
2019-02-24T14:45:18.105Z,57.03
2019-02-24T14:47:46.378Z,66.40
2019-02-24T14:50:14.823Z,59.45
2019-02-24T14:52:43.237Z,43.90
2019-02-24T14:55:12.739Z,47.48
2019-02-24T14:57:41.121Z,47.70
2019-02-24T15:00:15.131Z,51.85
2019-02-24T15:02:43.504Z,69.87
2019-02-24T15:05:14.031Z,63.00
2019-02-24T15:07:42.346Z,73.75
2019-02-24T15:10:13.530Z,72.47
2019-02-24T15:12:41.863Z,58.00
2019-02-24T15:15:13.392Z,60.43
2019-02-24T15:17:41.676Z,60.43
2019-02-24T15:20:13.124Z,61.42
2019-02-24T15:22:41.399Z,66.45
2019-02-24T15:25:12.220Z,65.62
2019-02-24T15:27:40.612Z,63.73
2019-02-24T15:30:15.119Z,66.22
2019-02-24T15:32:51.306Z,62.55
2019-02-24T15:35:13.532Z,48.45
2019-02-24T15:37:41.815Z,51.13
2019-02-24T15:40:10.839Z,51.00
2019-02-24T15:42:39.231Z,53.38
2019-02-24T15:45:09.252Z,40.12
2019-02-24T15:47:37.528Z,41.13
2019-02-24T15:50:08.804Z,47.50
2019-02-24T15:52:38.063Z,51.28
2019-02-24T15:55:09.066Z,49.40
2019-02-24T15:57:37.480Z,49.75
2019-02-24T16:00:11.929Z,50.85
2019-02-24T16:02:44.491Z,52.47
2019-02-24T16:05:12.839Z,53.08
2019-02-24T16:07:41.122Z,50.60
2019-02-24T16:10:17.374Z,50.78
2019-02-24T16:12:45.748Z,40.48
2019-02-24T16:15:19.146Z,44.83
2019-02-24T16:17:47.464Z,43.40
2019-02-24T16:20:21.584Z,43.60
2019-02-24T16:22:49.867Z,50.98
2019-02-24T16:25:18.251Z,52.48
2019-02-24T16:27:46.540Z,53.50
2019-02-24T16:30:15.928Z,56.63
2019-02-24T16:32:44.350Z,65.67
2019-02-24T16:35:15.133Z,57.17
2019-02-24T16:37:43.491Z,54.48
2019-02-24T16:40:16.806Z,54.23
2019-02-24T16:42:45.080Z,55.58
2019-02-24T16:45:15.067Z,59.13
2019-02-24T16:47:43.391Z,55.17
2019-02-24T16:50:14.923Z,56.92
2019-02-24T16:52:43.583Z,60.92
2019-02-24T16:55:14.110Z,52.13
2019-02-24T16:57:42.464Z,55.50
2019-02-24T17:00:22.469Z,56.53
2019-02-24T17:02:50.827Z,57.75
2019-02-24T17:05:19.250Z,65.45
2019-02-24T17:07:49.228Z,58.38
2019-02-24T17:10:19.212Z,61.77
2019-02-24T17:12:47.557Z,70.20
2019-02-24T17:15:16.012Z,74.62
2019-02-24T17:17:44.307Z,67.25
2019-02-24T17:20:21.467Z,66.42
2019-02-24T17:22:49.747Z,56.53
2019-02-24T17:25:18.167Z,55.25
2019-02-24T17:27:46.480Z,54.75
2019-02-24T17:30:15.737Z,51.60
2019-02-24T17:32:44.087Z,54.00
2019-02-24T17:35:12.627Z,50.88
2019-02-24T17:37:40.936Z,57.40
2019-02-24T17:40:15.419Z,63.52
2019-02-24T17:42:43.769Z,60.88
2019-02-24T17:45:13.155Z,63.33
2019-02-24T17:47:41.463Z,68.92
2019-02-24T17:50:17.174Z,79.97
2019-02-24T17:52:45.593Z,84.83
2019-02-24T17:55:19.244Z,77.50
2019-02-24T17:57:47.644Z,79.47
2019-02-24T18:00:23.205Z,78.80
2019-02-24T18:03:03.779Z,72.97
2019-02-24T18:05:32.135Z,69.85
2019-02-24T18:08:00.519Z,78.30
2019-02-24T18:10:35.857Z,84.15
2019-02-24T18:13:04.275Z,78.33
2019-02-24T18:15:32.658Z,86.08
2019-02-24T18:18:01.063Z,83.27
2019-02-24T18:20:29.472Z,86.22
2019-02-24T18:23:03.397Z,88.07
2019-02-24T18:25:31.743Z,81.85
2019-02-24T18:28:00.085Z,85.47
2019-02-24T18:30:29.540Z,77.37
2019-02-24T18:32:58.056Z,83.90
2019-02-24T18:35:26.396Z,72.20
2019-02-24T18:37:54.823Z,79.53
2019-02-24T18:40:23.179Z,77.27
2019-02-24T18:42:59.826Z,73.83
2019-02-24T18:45:21.564Z,72.20
2019-02-24T18:47:50.815Z,77.50
2019-02-24T18:50:19.591Z,79.03
2019-02-24T18:52:48.336Z,83.10
2019-02-24T18:55:16.695Z,74.67
2019-02-24T18:57:45.004Z,89.85
2019-02-24T19:00:21.575Z,84.07
2019-02-24T19:02:50.038Z,83.47
2019-02-24T19:05:18.437Z,82.62
2019-02-24T19:07:46.801Z,76.55
2019-02-24T19:10:21.377Z,73.15
2019-02-24T19:12:49.931Z,58.95
2019-02-24T19:15:34.022Z,63.83
2019-02-24T19:18:02.645Z,66.97
2019-02-24T19:20:31.051Z,60.55
2019-02-24T19:22:59.327Z,66.40
2019-02-24T19:25:31.053Z,69.70
2019-02-24T19:28:00.514Z,63.52
2019-02-24T19:30:28.972Z,66.28
2019-02-24T19:32:57.347Z,67.42
2019-02-24T19:35:25.713Z,65.15
2019-02-24T19:37:54.053Z,61.37
2019-02-24T19:40:26.804Z,66.72
2019-02-24T19:43:00.378Z,65.65
2019-02-24T19:45:28.761Z,76.10
2019-02-24T19:47:57.134Z,78.37
2019-02-24T19:50:25.476Z,81.97
2019-02-24T19:52:53.939Z,93.25
2019-02-24T19:55:22.216Z,84.58
2019-02-24T19:57:51.089Z,91.12
2019-02-24T20:00:24.149Z,88.22
2019-02-24T20:02:52.439Z,90.55
2019-02-24T20:05:20.971Z,87.20
2019-02-24T20:07:49.387Z,95.90
2019-02-24T20:10:19.833Z,114.67
2019-02-24T20:12:48.212Z,122.50
2019-02-24T20:15:18.083Z,103.95
2019-02-24T20:17:49.595Z,102.05
2019-02-24T20:20:18.137Z,90.57
2019-02-24T20:22:46.574Z,81.70
2019-02-24T20:25:17.614Z,92.82
2019-02-24T20:27:45.964Z,81.25
2019-02-24T20:30:20.169Z,78.45
2019-02-24T20:32:49.606Z,74.50
2019-02-24T20:35:18.031Z,67.72
2019-02-24T20:37:47.988Z,72.10
2019-02-24T20:40:21.074Z,83.92
2019-02-24T20:42:51.154Z,125.30
2019-02-24T20:45:25.700Z,125.97
2019-02-24T20:47:54.099Z,134.03
2019-02-24T20:50:25.738Z,133.63
2019-02-24T20:52:54.183Z,129.40
2019-02-24T20:55:24.291Z,130.45
2019-02-24T20:57:54.411Z,128.47
2019-02-24T21:00:40.801Z,140.50
2019-02-24T21:03:13.042Z,136.52
2019-02-24T21:05:48.037Z,149.23
2019-02-24T21:08:16.368Z,134.87
2019-02-24T21:10:44.641Z,135.82
2019-02-24T21:13:16.745Z,137.10
2019-02-24T21:15:46.541Z,131.50
2019-02-24T21:18:16.488Z,128.80
2019-02-24T21:20:44.839Z,107.90
2019-02-24T21:23:13.163Z,115.10
2019-02-24T21:25:41.449Z,107.45
2019-02-24T21:28:09.756Z,108.32
2019-02-24T21:30:38.235Z,122.45
2019-02-24T21:33:07.053Z,123.97
2019-02-24T21:35:35.406Z,128.83
2019-02-24T21:38:03.763Z,111.12
2019-02-24T21:40:32.119Z,130.97
2019-02-24T21:43:00.531Z,136.03
2019-02-24T21:45:29.112Z,125.05
2019-02-24T21:47:57.479Z,129.00
2019-02-24T21:50:25.753Z,126.18
2019-02-24T21:52:54.105Z,113.03
2019-02-24T21:55:22.400Z,128.18
2019-02-24T21:57:50.682Z,130.20
2019-02-24T22:00:38.549Z,120.92
2019-02-24T22:03:07.184Z,127.17
2019-02-24T22:05:35.560Z,123.60
2019-02-24T22:08:03.965Z,121.82
2019-02-24T22:10:32.251Z,125.15
2019-02-24T22:13:00.604Z,128.40
2019-02-24T22:15:29.007Z,129.63
2019-02-24T22:17:57.389Z,135.20
2019-02-24T22:20:25.756Z,130.07
2019-02-24T22:22:54.070Z,132.97
2019-02-24T22:25:22.367Z,137.22
2019-02-24T22:27:50.723Z,127.78
2019-02-24T22:30:23.091Z,130.27
2019-02-24T22:32:51.442Z,129.60
2019-02-24T22:35:19.723Z,136.85
2019-02-24T22:37:48.215Z,138.07
2019-02-24T22:40:17.204Z,131.18
2019-02-24T22:42:45.967Z,125.80
2019-02-24T22:45:18.833Z,118.90
2019-02-24T22:47:48.843Z,115.37
2019-02-24T22:50:17.251Z,104.50
2019-02-24T22:52:46.066Z,108.75
2019-02-24T22:55:18.322Z,98.80
2019-02-24T22:57:46.606Z,109.17
2019-02-24T23:00:27.564Z,103.02
2019-02-24T23:02:55.955Z,99.87
2019-02-24T23:05:24.364Z,104.38
2019-02-24T23:07:52.744Z,105.45
2019-02-24T23:10:21.091Z,107.47
2019-02-24T23:12:49.405Z,104.17
2019-02-24T23:15:17.723Z,103.50
2019-02-24T23:17:46.083Z,101.82
2019-02-24T23:20:14.363Z,99.37
2019-02-24T23:22:42.688Z,100.78
2019-02-24T23:25:10.963Z,101.42
2019-02-24T23:27:39.331Z,95.35
2019-02-24T23:30:09.504Z,95.72
2019-02-24T23:32:37.830Z,101.80
2019-02-24T23:35:06.649Z,104.92
2019-02-24T23:37:34.977Z,108.07
2019-02-24T23:40:05.140Z,105.25
2019-02-24T23:42:33.468Z,97.72
2019-02-24T23:45:10.022Z,100.27
2019-02-24T23:47:31.918Z,102.80
2019-02-24T23:50:00.358Z,96.47
2019-02-24T23:52:28.751Z,107.15
2019-02-24T23:54:57.088Z,95.50
2019-02-24T23:57:25.515Z,97.65
2019-02-24T23:59:53.921Z,106.85
